Time;durP1;ratioP1;P1;durP2;ratioP2;P2;SDS_P1;SDS_P2;PMS_P1;PMS_P2;Temp;Humidity;BMP_temperature;BMP_pressure;BME280_temperature;BME280_humidity;BME280_pressure;Samples;Min_cycle;Max_cycle;Signal;HPM_P1;HPM_P2
2023/11/14 00:00:47;;;;;;;3.42;1.50;;;11.30;99.90;;;;;;2080865;28;20585;-76
2023/11/14 00:01:48;;;;;;;3.35;1.40;;;11.30;99.90;;;;;;2075897;28;20021;-76
2023/11/14 00:02:48;;;;;;;3.47;1.40;;;11.30;99.90;;;;;;2079447;28;20029;-76
2023/11/14 00:03:49;;;;;;;3.45;1.40;;;11.30;99.90;;;;;;2067859;28;20218;-76
2023/11/14 00:04:51;;;;;;;5.90;1.60;;;11.30;99.90;;;;;;2060144;28;20044;-76
2023/11/14 00:05:51;;;;;;;4.57;1.40;;;11.30;99.90;;;;;;2056666;28;20820;-76
2023/11/14 00:06:52;;;;;;;2.60;1.30;;;11.30;99.90;;;;;;2059312;28;20034;-75
2023/11/14 00:07:53;;;;;;;3.53;1.50;;;11.30;99.90;;;;;;2066845;28;20063;-75
2023/11/14 00:08:54;;;;;;;3.28;1.30;;;11.20;99.90;;;;;;2075734;28;20021;-75
2023/11/14 00:09:54;;;;;;;3.85;1.45;;;11.20;99.90;;;;;;2079140;28;20026;-77
2023/11/14 00:10:55;;;;;;;5.22;1.67;;;11.30;99.90;;;;;;2062494;28;20418;-76
2023/11/14 00:11:56;;;;;;;3.47;1.60;;;11.30;99.90;;;;;;2067300;28;20049;-76
2023/11/14 00:12:56;;;;;;;5.20;1.52;;;11.30;99.90;;;;;;2079191;28;20136;-76
2023/11/14 00:13:57;;;;;;;4.00;1.40;;;11.30;99.90;;;;;;2070767;28;20189;-75
2023/11/14 00:14:58;;;;;;;5.80;1.42;;;11.30;99.90;;;;;;2067665;28;20022;-76
2023/11/14 00:15:59;;;;;;;5.97;1.67;;;11.30;99.90;;;;;;2078177;28;20032;-76
2023/11/14 00:16:59;;;;;;;7.30;1.80;;;11.30;99.90;;;;;;2070277;28;20030;-76
2023/11/14 00:18:01;;;;;;;4.90;1.65;;;11.30;99.90;;;;;;2059515;28;20088;-76
2023/11/14 00:19:02;;;;;;;4.60;1.58;;;11.30;99.90;;;;;;2069519;28;20542;-76
2023/11/14 00:20:06;;;;;;;5.15;1.70;;;11.30;99.90;;;;;;2066575;28;20061;-76
2023/11/14 00:21:06;;;;;;;6.57;1.75;;;11.30;99.90;;;;;;2067411;28;20040;-77
2023/11/14 00:22:07;;;;;;;6.68;2.03;;;11.20;99.90;;;;;;2058652;28;20074;-76
2023/11/14 00:23:08;;;;;;;5.63;1.60;;;11.20;99.90;;;;;;2067015;28;20048;-76
2023/11/14 00:24:09;;;;;;;5.00;1.75;;;11.20;99.90;;;;;;2075640;28;20476;-77
2023/11/14 00:25:09;;;;;;;8.15;1.77;;;11.20;99.90;;;;;;2075473;28;20522;-75
2023/11/14 00:26:10;;;;;;;7.20;1.67;;;11.30;99.90;;;;;;2070421;28;20025;-76
2023/11/14 00:27:12;;;;;;;6.82;1.90;;;11.20;99.90;;;;;;2066782;28;20444;-76
2023/11/14 00:28:12;;;;;;;6.18;1.73;;;11.20;99.90;;;;;;2076072;28;20044;-76
2023/11/14 00:29:13;;;;;;;7.75;2.00;;;11.20;99.90;;;;;;2070548;28;20516;-75
2023/11/14 00:30:14;;;;;;;8.63;2.05;;;11.10;99.90;;;;;;2058738;28;20100;-75
2023/11/14 00:31:15;;;;;;;6.70;1.95;;;11.10;99.90;;;;;;2065733;28;20348;-76
2023/11/14 00:32:15;;;;;;;8.05;2.03;;;11.10;99.90;;;;;;2075300;28;20044;-76
2023/11/14 00:33:16;;;;;;;8.70;1.90;;;11.10;99.90;;;;;;2066814;28;20026;-76
2023/11/14 00:34:17;;;;;;;5.88;2.20;;;11.00;99.90;;;;;;2066663;28;20730;-76
2023/11/14 00:35:17;;;;;;;8.27;1.88;;;11.00;99.90;;;;;;2066609;28;20018;-76
2023/11/14 00:36:19;;;;;;;7.20;1.80;;;11.00;99.90;;;;;;2067241;28;20077;-76
2023/11/14 00:37:20;;;;;;;6.25;1.80;;;11.00;99.90;;;;;;2069225;28;20428;-77
2023/11/14 00:38:20;;;;;;;5.40;1.88;;;10.90;99.90;;;;;;2073094;28;20105;-76
2023/11/14 00:39:21;;;;;;;8.65;2.13;;;10.90;99.90;;;;;;2072038;28;20112;-77
2023/11/14 00:40:23;;;;;;;9.13;2.10;;;10.90;99.90;;;;;;2066801;28;20030;-76
2023/11/14 00:41:23;;;;;;;8.57;2.08;;;10.90;99.90;;;;;;2065183;28;20042;-75
2023/11/14 00:42:24;;;;;;;7.53;1.90;;;10.90;99.90;;;;;;2079331;28;20025;-77
2023/11/14 00:43:24;;;;;;;7.30;2.08;;;10.80;99.90;;;;;;2075181;28;20025;-77
2023/11/14 00:44:25;;;;;;;8.05;2.20;;;10.80;99.90;;;;;;2070158;28;20030;-77
2023/11/14 00:45:27;;;;;;;7.97;2.03;;;10.80;99.90;;;;;;2070669;28;20160;-77
2023/11/14 00:46:28;;;;;;;9.88;2.20;;;10.80;99.90;;;;;;2066564;28;20557;-77
2023/11/14 00:47:31;;;;;;;9.50;2.22;;;10.80;99.90;;;;;;2074830;28;20803;-76
2023/11/14 00:48:32;;;;;;;6.45;2.10;;;10.80;99.90;;;;;;2067405;28;20030;-76
2023/11/14 00:49:32;;;;;;;8.70;1.90;;;10.80;99.90;;;;;;2067649;28;20516;-78
2023/11/14 00:50:33;;;;;;;7.18;1.88;;;10.80;99.90;;;;;;2077969;28;20599;-77
2023/11/14 00:51:34;;;;;;;9.27;2.05;;;10.80;99.90;;;;;;2070135;28;20021;-75
2023/11/14 00:52:34;;;;;;;9.32;2.47;;;10.80;99.90;;;;;;2067795;28;20104;-75
2023/11/14 00:53:35;;;;;;;8.35;2.25;;;10.80;99.90;;;;;;2077866;28;20609;-76
2023/11/14 00:54:36;;;;;;;6.90;2.10;;;10.90;99.90;;;;;;2069714;28;20530;-76
2023/11/14 00:55:37;;;;;;;9.05;2.22;;;10.90;99.90;;;;;;2059358;28;20290;-76
2023/11/14 00:56:38;;;;;;;12.30;2.50;;;10.90;99.90;;;;;;2050447;28;20493;-76
2023/11/14 00:57:40;;;;;;;9.55;2.20;;;10.90;99.90;;;;;;2060768;28;20211;-76
2023/11/14 00:58:41;;;;;;;13.45;2.10;;;10.90;99.90;;;;;;2060885;28;20101;-77
2023/11/14 00:59:42;;;;;;;7.97;2.15;;;10.90;99.90;;;;;;2067882;28;20136;-76
2023/11/14 01:00:42;;;;;;;7.55;2.10;;;10.90;99.90;;;;;;2076094;28;20028;-77
2023/11/14 01:01:43;;;;;;;8.98;2.20;;;10.90;99.90;;;;;;2056505;28;20026;-77
2023/11/14 01:02:45;;;;;;;10.43;2.30;;;10.80;99.90;;;;;;2059382;28;20496;-77
2023/11/14 01:03:46;;;;;;;8.05;2.10;;;10.80;99.90;;;;;;2075275;28;20034;-76
2023/11/14 01:04:47;;;;;;;9.32;2.40;;;10.90;99.90;;;;;;2075530;28;20024;-76
2023/11/14 01:05:47;;;;;;;13.93;2.50;;;10.90;99.90;;;;;;2076762;28;20111;-74
2023/11/14 01:06:48;;;;;;;8.02;2.28;;;10.90;99.90;;;;;;2077008;28;20103;-76
2023/11/14 01:07:48;;;;;;;10.27;1.98;;;10.90;99.90;;;;;;2061131;28;20037;-76
2023/11/14 01:08:51;;;;;;;11.15;2.25;;;10.90;99.90;;;;;;2054374;28;20088;-76
2023/11/14 01:09:52;;;;;;;10.30;2.38;;;10.90;99.90;;;;;;2070568;28;20056;-77
2023/11/14 01:10:52;;;;;;;8.10;2.03;;;10.90;99.90;;;;;;2060562;28;20160;-76
2023/11/14 01:11:53;;;;;;;8.27;2.17;;;10.90;99.90;;;;;;2058353;28;20581;-77
2023/11/14 01:12:55;;;;;;;9.52;2.42;;;10.90;99.90;;;;;;2070215;28;20171;-77
2023/11/14 01:13:57;;;;;;;9.32;2.22;;;10.90;99.90;;;;;;2070323;28;20730;-76
2023/11/14 01:14:59;;;;;;;5.93;2.10;;;10.90;99.90;;;;;;2066671;28;20050;-76
2023/11/14 01:15:59;;;;;;;12.50;2.60;;;10.90;99.90;;;;;;2069787;28;20049;-76
2023/11/14 01:17:00;;;;;;;9.45;2.50;;;10.90;99.90;;;;;;2079323;28;20383;-76
2023/11/14 01:18:00;;;;;;;8.77;2.17;;;10.90;99.90;;;;;;2066669;28;20025;-76
2023/11/14 01:19:01;;;;;;;9.07;2.28;;;10.90;99.90;;;;;;2066068;28;20085;-75
2023/11/14 01:20:02;;;;;;;10.45;2.33;;;10.90;99.90;;;;;;2070109;28;20046;-77
2023/11/14 01:21:03;;;;;;;8.45;2.10;;;10.90;99.90;;;;;;2070089;28;20017;-77
2023/11/14 01:22:03;;;;;;;8.95;2.47;;;10.90;99.90;;;;;;2066786;28;20508;-77
2023/11/14 01:23:04;;;;;;;10.98;2.20;;;10.90;99.90;;;;;;2061345;28;20026;-77
2023/11/14 01:24:06;;;;;;;8.40;2.30;;;11.00;99.90;;;;;;2070295;28;20403;-76
2023/11/14 01:25:07;;;;;;;11.05;2.42;;;11.00;99.90;;;;;;2073620;28;20018;-76
2023/11/14 01:26:08;;;;;;;9.05;2.20;;;11.00;99.90;;;;;;2077814;28;20036;-76
2023/11/14 01:27:09;;;;;;;8.93;2.20;;;11.00;99.90;;;;;;2079061;28;20033;-76
2023/11/14 01:28:09;;;;;;;12.25;2.75;;;10.90;99.90;;;;;;2067363;28;20553;-76
2023/11/14 01:29:10;;;;;;;6.60;2.08;;;11.00;99.90;;;;;;2060322;28;20022;-76
2023/11/14 01:30:11;;;;;;;6.05;2.10;;;11.00;99.90;;;;;;2059455;28;20331;-76
2023/11/14 01:31:21;;;;;;;8.32;2.40;;;11.00;99.90;;;;;;2067937;28;20025;-76
2023/11/14 01:32:22;;;;;;;10.25;2.80;;;11.00;99.90;;;;;;2076021;28;20529;-76
2023/11/14 01:33:22;;;;;;;10.07;2.30;;;11.00;99.90;;;;;;2070116;28;20131;-76
2023/11/14 01:34:23;;;;;;;11.93;2.80;;;11.10;99.90;;;;;;2060772;28;20201;-77
2023/11/14 01:35:24;;;;;;;11.30;2.40;;;11.10;99.90;;;;;;2070178;28;20048;-75
2023/11/14 01:36:24;;;;;;;10.85;2.30;;;11.00;99.90;;;;;;2078706;28;20029;-76
2023/11/14 01:37:25;;;;;;;9.02;2.10;;;11.00;99.90;;;;;;2078410;28;20025;-75
2023/11/14 01:38:25;;;;;;;8.68;2.60;;;11.10;99.90;;;;;;2078092;28;20025;-75
2023/11/14 01:39:27;;;;;;;8.93;2.30;;;11.10;99.90;;;;;;2066827;28;20084;-76
2023/11/14 01:40:27;;;;;;;9.13;2.20;;;11.10;99.90;;;;;;2060235;28;20026;-76
2023/11/14 01:41:28;;;;;;;9.85;2.35;;;11.10;99.90;;;;;;2069454;28;20053;-76
2023/11/14 01:42:28;;;;;;;8.52;2.47;;;11.10;99.90;;;;;;2075335;28;20033;-76
2023/11/14 01:43:29;;;;;;;7.82;2.30;;;11.10;99.90;;;;;;2062320;28;20562;-76
2023/11/14 01:44:30;;;;;;;11.05;2.72;;;11.10;99.90;;;;;;2061896;28;20033;-75
2023/11/14 01:45:31;;;;;;;11.23;2.70;;;11.10;99.90;;;;;;2064503;28;20029;-74
2023/11/14 01:46:32;;;;;;;10.35;2.63;;;11.10;99.90;;;;;;2062648;28;20033;-76
2023/11/14 01:47:33;;;;;;;8.90;2.65;;;11.10;99.90;;;;;;2078500;28;20032;-75
2023/11/14 01:48:34;;;;;;;10.07;2.83;;;11.10;99.90;;;;;;2066275;28;20056;-76
2023/11/14 01:49:34;;;;;;;12.73;2.50;;;11.10;99.90;;;;;;2061712;28;20109;-76
2023/11/14 01:50:37;;;;;;;10.35;2.63;;;11.10;99.90;;;;;;2053689;28;20038;-75
2023/11/14 01:51:37;;;;;;;11.93;2.50;;;11.10;99.90;;;;;;2059204;28;20121;-76
2023/11/14 01:52:38;;;;;;;10.88;2.30;;;11.10;99.90;;;;;;2060823;28;20516;-76
2023/11/14 01:53:39;;;;;;;13.25;2.45;;;11.10;99.90;;;;;;2050203;28;20287;-76
2023/11/14 01:54:41;;;;;;;10.95;2.70;;;11.10;99.90;;;;;;2058935;28;20042;-76
2023/11/14 01:55:41;;;;;;;10.18;2.38;;;11.10;99.90;;;;;;2066011;28;20114;-76
2023/11/14 01:56:43;;;;;;;11.07;2.55;;;11.10;99.90;;;;;;2076475;28;20333;-77
2023/11/14 01:57:45;;;;;;;10.07;2.42;;;11.10;99.90;;;;;;2077373;28;20037;-76
2023/11/14 01:58:46;;;;;;;12.68;2.80;;;11.10;99.90;;;;;;2078438;28;20025;-76
2023/11/14 01:59:47;;;;;;;11.05;2.67;;;11.10;99.90;;;;;;2067801;28;20658;-77
2023/11/14 02:00:48;;;;;;;12.82;3.03;;;11.10;99.90;;;;;;2068153;28;20657;-76
2023/11/14 02:01:49;;;;;;;14.75;3.00;;;11.10;99.90;;;;;;2077903;28;20029;-77
2023/11/14 02:02:50;;;;;;;13.32;2.90;;;11.10;99.90;;;;;;2074856;28;20041;-76
2023/11/14 02:03:51;;;;;;;12.35;3.00;;;11.00;99.90;;;;;;2074904;28;20030;-76
2023/11/14 02:04:53;;;;;;;11.98;2.67;;;11.00;99.90;;;;;;2075186;28;20566;-76
2023/11/14 02:05:55;;;;;;;14.30;3.47;;;11.10;99.90;;;;;;2074867;28;20390;-76
2023/11/14 02:06:56;;;;;;;12.55;2.85;;;11.10;99.90;;;;;;2068722;28;20060;-77
2023/11/14 02:07:57;;;;;;;14.48;3.28;;;11.10;99.90;;;;;;2065903;28;20232;-77
2023/11/14 02:09:00;;;;;;;13.50;2.85;;;11.10;99.90;;;;;;2069172;28;20140;-76
2023/11/14 02:10:01;;;;;;;11.43;2.63;;;11.00;99.90;;;;;;2066192;28;20041;-76
2023/11/14 02:11:01;;;;;;;13.23;2.80;;;11.10;99.90;;;;;;2078560;28;20038;-77
2023/11/14 02:12:02;;;;;;;13.82;2.80;;;11.10;99.90;;;;;;2070025;28;20385;-75
2023/11/14 02:13:03;;;;;;;14.68;3.15;;;11.00;99.90;;;;;;2058086;28;20105;-76
2023/11/14 02:14:05;;;;;;;14.25;2.95;;;11.10;99.90;;;;;;2069665;28;20053;-77
2023/11/14 02:15:07;;;;;;;13.10;2.97;;;11.00;99.90;;;;;;2069014;28;20040;-76
2023/11/14 02:16:08;;;;;;;12.38;2.90;;;11.00;99.90;;;;;;2066926;28;20021;-76
2023/11/14 02:17:15;;;;;;;14.20;3.30;;;11.00;99.90;;;;;;2078044;28;20504;-75
2023/11/14 02:18:18;;;;;;;12.43;2.80;;;11.10;99.90;;;;;;2076162;28;20450;-76
2023/11/14 02:19:19;;;;;;;16.55;3.15;;;11.10;99.90;;;;;;2074983;28;20761;-76
2023/11/14 02:20:19;;;;;;;12.43;2.80;;;11.10;99.90;;;;;;2068393;28;20041;-76
2023/11/14 02:21:21;;;;;;;14.50;2.60;;;11.10;99.90;;;;;;2059242;28;20576;-76
2023/11/14 02:22:22;;;;;;;13.20;3.05;;;11.10;99.90;;;;;;2066030;28;20061;-76
2023/11/14 02:23:26;;;;;;;14.60;3.35;;;11.10;99.90;;;;;;2066837;28;20022;-76
2023/11/14 02:24:28;;;;;;;12.13;2.85;;;11.10;99.90;;;;;;2058548;28;20026;-76
2023/11/14 02:25:29;;;;;;;15.85;3.38;;;11.10;99.90;;;;;;2059210;28;20026;-76
2023/11/14 02:26:30;;;;;;;13.82;3.28;;;11.00;99.90;;;;;;2061007;28;20584;-76
2023/11/14 02:27:31;;;;;;;15.63;3.30;;;11.10;99.90;;;;;;2049734;28;20055;-74
2023/11/14 02:28:32;;;;;;;11.48;2.90;;;11.10;99.90;;;;;;2061483;28;20046;-75
2023/11/14 02:29:33;;;;;;;14.73;3.00;;;11.10;99.90;;;;;;2077985;28;20499;-76
2023/11/14 02:30:37;;;;;;;14.82;3.25;;;11.10;99.90;;;;;;2078548;28;20025;-76
2023/11/14 02:31:37;;;;;;;14.00;3.10;;;11.00;99.90;;;;;;2058652;28;20042;-75
2023/11/14 02:32:38;;;;;;;16.67;2.72;;;11.00;99.90;;;;;;2060739;28;20357;-76
2023/11/14 02:33:39;;;;;;;14.95;3.17;;;11.10;99.90;;;;;;2072753;28;20029;-77
2023/11/14 02:34:41;;;;;;;14.88;3.00;;;11.10;99.90;;;;;;2069829;28;20582;-75
2023/11/14 02:35:42;;;;;;;13.30;2.80;;;11.10;99.90;;;;;;2075930;28;20484;-76
2023/11/14 02:36:44;;;;;;;15.15;2.90;;;11.10;99.90;;;;;;2077016;28;20488;-76
2023/11/14 02:37:46;;;;;;;16.27;2.88;;;11.10;99.90;;;;;;2076656;28;20055;-77
2023/11/14 02:38:46;;;;;;;12.60;2.60;;;11.10;99.90;;;;;;2074795;28;20255;-75
2023/11/14 02:39:47;;;;;;;13.07;2.92;;;11.10;99.90;;;;;;2067091;28;20072;-76
2023/11/14 02:40:50;;;;;;;12.52;2.88;;;11.10;99.90;;;;;;2071673;28;20045;-76
2023/11/14 02:41:51;;;;;;;13.68;2.97;;;11.10;99.90;;;;;;2078964;28;20033;-76
2023/11/14 02:42:53;;;;;;;12.23;2.83;;;11.10;99.90;;;;;;2063388;28;20183;-76
2023/11/14 02:43:57;;;;;;;16.52;3.00;;;11.10;99.90;;;;;;2067187;28;20026;-76
2023/11/14 02:44:57;;;;;;;12.18;3.10;;;11.10;99.90;;;;;;2070867;28;20025;-77
2023/11/14 02:45:58;;;;;;;12.02;2.80;;;11.10;99.90;;;;;;2051527;28;20026;-77
2023/11/14 02:46:58;;;;;;;10.82;2.60;;;11.10;99.90;;;;;;2063089;28;20042;-77
2023/11/14 02:48:01;;;;;;;10.48;2.70;;;11.10;99.90;;;;;;2063172;28;20030;-76
2023/11/14 02:49:27;;;;;;;15.32;3.20;;;11.10;99.90;;;;;;2059894;28;20049;-76
2023/11/14 02:50:40;;;;;;;12.35;2.80;;;11.10;99.90;;;;;;2076473;28;20036;-77
2023/11/14 02:51:41;;;;;;;12.88;2.97;;;11.10;99.90;;;;;;2075859;28;20037;-76
2023/11/14 02:52:42;;;;;;;15.18;3.13;;;11.10;99.90;;;;;;2071116;28;20051;-77
2023/11/14 02:53:43;;;;;;;11.52;3.08;;;11.10;99.90;;;;;;2072472;28;20025;-77
2023/11/14 02:54:43;;;;;;;10.35;2.67;;;11.10;99.90;;;;;;2061934;28;20069;-76
2023/11/14 02:55:51;;;;;;;13.60;3.22;;;11.10;99.90;;;;;;2064119;28;20038;-76
2023/11/14 02:56:52;;;;;;;16.70;3.45;;;11.10;99.90;;;;;;2077599;28;20032;-75
2023/11/14 02:57:52;;;;;;;13.40;3.20;;;11.10;99.90;;;;;;2074701;28;20700;-76
2023/11/14 02:58:53;;;;;;;13.63;2.97;;;11.10;99.90;;;;;;2076159;28;20682;-75
2023/11/14 02:59:54;;;;;;;10.18;2.88;;;11.20;99.90;;;;;;2076194;28;20045;-77
2023/11/14 03:00:55;;;;;;;11.75;2.70;;;11.20;99.90;;;;;;2069489;28;20128;-75
2023/11/14 03:01:55;;;;;;;13.20;3.05;;;11.20;99.90;;;;;;2067670;28;20068;-75
2023/11/14 03:02:56;;;;;;;13.60;2.80;;;11.20;99.90;;;;;;2076281;28;20034;-76
2023/11/14 03:03:57;;;;;;;14.15;2.88;;;11.20;99.90;;;;;;2076878;28;20049;-76
2023/11/14 03:04:57;;;;;;;12.10;2.78;;;11.20;99.90;;;;;;2077600;28;20115;-76
2023/11/14 03:06:01;;;;;;;12.30;2.90;;;11.20;99.90;;;;;;2066569;28;20029;-77
2023/11/14 03:07:02;;;;;;;16.73;2.60;;;11.20;99.90;;;;;;2064317;28;20041;-75
2023/11/14 03:08:03;;;;;;;10.70;2.72;;;11.20;99.90;;;;;;2064800;28;20030;-76
2023/11/14 03:09:04;;;;;;;13.60;2.80;;;11.20;99.90;;;;;;2069836;28;20053;-76
2023/11/14 03:10:06;;;;;;;15.63;3.00;;;11.20;99.90;;;;;;2055473;28;20235;-76
2023/11/14 03:11:08;;;;;;;14.13;2.85;;;11.20;99.90;;;;;;2060182;28;20508;-76
2023/11/14 03:12:08;;;;;;;18.42;3.10;;;11.20;99.90;;;;;;2068413;28;20125;-77
2023/11/14 03:13:09;;;;;;;15.75;3.10;;;11.20;99.90;;;;;;2067622;28;20026;-75
2023/11/14 03:14:09;;;;;;;13.00;2.90;;;11.20;99.90;;;;;;2070319;28;20496;-77
2023/11/14 03:15:10;;;;;;;15.48;2.90;;;11.20;99.90;;;;;;2070859;28;20858;-77
2023/11/14 03:16:14;;;;;;;13.20;2.83;;;11.20;99.90;;;;;;2077112;28;20541;-76
2023/11/14 03:17:16;;;;;;;16.73;3.53;;;11.20;99.90;;;;;;2067707;28;20030;-76
2023/11/14 03:18:17;;;;;;;13.15;3.13;;;11.20;99.90;;;;;;2069538;28;20111;-76
2023/11/14 03:19:18;;;;;;;13.95;2.63;;;11.20;99.90;;;;;;2079204;28;20447;-76
2023/11/14 03:20:20;;;;;;;12.20;2.83;;;11.20;99.90;;;;;;2067336;28;20018;-76
2023/11/14 03:21:21;;;;;;;13.77;2.80;;;11.20;99.90;;;;;;2059005;28;20309;-76
2023/11/14 03:22:22;;;;;;;11.48;2.83;;;11.20;99.90;;;;;;2068769;28;20506;-77
2023/11/14 03:23:24;;;;;;;10.85;2.78;;;11.20;99.90;;;;;;2076205;28;20072;-76
2023/11/14 03:24:24;;;;;;;17.00;3.00;;;11.10;99.90;;;;;;2076385;28;20363;-76
2023/11/14 03:25:25;;;;;;;13.35;2.80;;;11.10;99.90;;;;;;2080232;28;20087;-76
2023/11/14 03:26:32;;;;;;;14.38;3.10;;;11.10;99.90;;;;;;2069598;28;20033;-76
2023/11/14 03:27:33;;;;;;;13.07;3.20;;;11.10;99.90;;;;;;2068452;28;20381;-76
2023/11/14 03:28:33;;;;;;;14.98;3.08;;;11.10;99.90;;;;;;2080006;28;20068;-76
2023/11/14 03:29:35;;;;;;;14.80;2.92;;;11.10;99.90;;;;;;2070886;28;20029;-75
2023/11/14 03:30:35;;;;;;;13.48;2.88;;;11.10;99.90;;;;;;2059292;28;20050;-76
2023/11/14 03:31:37;;;;;;;12.75;2.80;;;11.10;99.90;;;;;;2071342;28;20436;-75
2023/11/14 03:32:39;;;;;;;10.93;2.60;;;11.10;99.90;;;;;;2067096;28;20029;-76
2023/11/14 03:33:40;;;;;;;13.60;3.10;;;11.10;99.90;;;;;;2075220;28;20275;-75
2023/11/14 03:34:40;;;;;;;12.85;3.15;;;11.10;99.90;;;;;;2076451;28;20072;-76
2023/11/14 03:35:41;;;;;;;11.63;2.88;;;11.10;99.90;;;;;;2067539;28;20068;-76
2023/11/14 03:36:41;;;;;;;10.68;2.60;;;11.20;99.90;;;;;;2067967;28;20595;-77
2023/11/14 03:37:42;;;;;;;15.73;3.20;;;11.10;99.90;;;;;;2076517;28;20120;-76
2023/11/14 03:38:43;;;;;;;14.48;2.83;;;11.20;99.90;;;;;;2070035;28;20030;-77
2023/11/14 03:39:44;;;;;;;15.30;3.00;;;11.20;99.90;;;;;;2068110;28;20586;-76
2023/11/14 03:40:44;;;;;;;13.45;2.97;;;11.20;99.90;;;;;;2061780;28;20113;-76
2023/11/14 03:41:45;;;;;;;12.35;3.13;;;11.20;99.90;;;;;;2058927;28;20042;-76
2023/11/14 03:42:46;;;;;;;9.95;2.75;;;11.20;99.90;;;;;;2068240;28;20034;-76
2023/11/14 03:43:47;;;;;;;11.85;2.85;;;11.20;99.90;;;;;;2061458;28;20084;-76
2023/11/14 03:44:48;;;;;;;17.45;2.80;;;11.20;99.90;;;;;;2071028;28;20053;-77
2023/11/14 03:45:48;;;;;;;11.85;2.85;;;11.20;99.90;;;;;;2073382;28;20033;-77
2023/11/14 03:46:49;;;;;;;17.38;3.40;;;11.20;99.90;;;;;;2064819;28;20468;-76
2023/11/14 03:47:50;;;;;;;13.55;3.20;;;11.20;99.90;;;;;;2070922;28;20078;-77
2023/11/14 03:48:51;;;;;;;12.05;2.80;;;11.20;99.90;;;;;;2070680;28;20128;-76
2023/11/14 03:49:52;;;;;;;12.93;2.65;;;11.20;99.90;;;;;;2069665;28;20034;-77
2023/11/14 03:50:53;;;;;;;14.38;2.75;;;11.20;99.90;;;;;;2068242;28;20609;-77
2023/11/14 03:51:53;;;;;;;12.75;2.90;;;11.20;99.90;;;;;;2062314;28;20028;-77
2023/11/14 03:52:54;;;;;;;11.85;2.80;;;11.20;99.90;;;;;;2069423;28;20029;-76
2023/11/14 03:53:54;;;;;;;14.60;2.97;;;11.20;99.90;;;;;;2069115;28;20550;-76
2023/11/14 03:54:55;;;;;;;13.30;2.95;;;11.20;99.90;;;;;;2071787;28;20821;-77
2023/11/14 03:55:55;;;;;;;12.40;2.83;;;11.20;99.90;;;;;;2067883;28;20036;-77
2023/11/14 03:56:56;;;;;;;14.68;2.67;;;11.10;99.90;;;;;;2067720;28;20029;-76
2023/11/14 03:57:57;;;;;;;13.25;3.20;;;11.20;99.90;;;;;;2071753;28;20546;-77
2023/11/14 03:58:57;;;;;;;11.35;2.65;;;11.20;99.90;;;;;;2070263;28;20646;-76
2023/11/14 03:59:58;;;;;;;12.10;2.75;;;11.20;99.90;;;;;;2068619;28;20507;-76
2023/11/14 04:00:59;;;;;;;12.48;2.80;;;11.20;99.90;;;;;;2067640;28;20022;-76
2023/11/14 04:01:59;;;;;;;15.98;3.00;;;11.20;99.90;;;;;;2067032;28;20037;-75
2023/11/14 04:03:00;;;;;;;14.48;3.00;;;11.20;99.90;;;;;;2070543;28;20030;-76
2023/11/14 04:04:01;;;;;;;14.27;2.88;;;11.10;99.90;;;;;;2070830;28;20403;-76
2023/11/14 04:05:01;;;;;;;11.43;2.60;;;11.10;99.90;;;;;;2067703;28;20381;-76
2023/11/14 04:06:02;;;;;;;11.93;2.80;;;11.20;99.90;;;;;;2061386;28;20081;-76
2023/11/14 04:07:03;;;;;;;13.05;3.03;;;11.10;99.90;;;;;;2068929;28;20029;-75
2023/11/14 04:08:04;;;;;;;11.40;2.80;;;11.10;99.90;;;;;;2066609;28;20029;-77
2023/11/14 04:09:05;;;;;;;14.40;2.70;;;11.10;99.90;;;;;;2071056;28;20032;-75
2023/11/14 04:10:07;;;;;;;15.45;2.80;;;11.10;99.90;;;;;;2067053;28;20036;-76
2023/11/14 04:11:07;;;;;;;13.98;3.00;;;11.10;99.90;;;;;;2070913;28;20042;-75
2023/11/14 04:12:08;;;;;;;13.63;2.60;;;11.10;99.90;;;;;;2067628;28;20037;-76
2023/11/14 04:13:09;;;;;;;11.65;2.60;;;11.10;99.90;;;;;;2067948;28;20113;-76
2023/11/14 04:14:10;;;;;;;12.82;2.60;;;11.10;99.90;;;;;;2070859;28;20040;-75
2023/11/14 04:15:10;;;;;;;12.30;2.80;;;11.10;99.90;;;;;;2058527;28;20053;-75
2023/11/14 04:16:11;;;;;;;15.25;2.80;;;11.10;99.90;;;;;;2066744;28;20029;-76
2023/11/14 04:17:12;;;;;;;13.45;2.60;;;11.10;99.90;;;;;;2066800;28;20125;-75
2023/11/14 04:18:13;;;;;;;14.00;2.80;;;11.10;99.90;;;;;;2069729;28;20028;-76
2023/11/14 04:19:14;;;;;;;14.05;2.60;;;11.20;99.90;;;;;;2071281;28;20025;-75
2023/11/14 04:20:14;;;;;;;12.30;2.70;;;11.20;99.90;;;;;;2067317;28;20026;-76
2023/11/14 04:21:19;;;;;;;14.40;2.92;;;11.20;99.90;;;;;;2070082;28;20022;-77
2023/11/14 04:22:20;;;;;;;10.75;2.97;;;11.20;99.90;;;;;;2078307;28;20021;-76
2023/11/14 04:23:21;;;;;;;13.88;2.70;;;11.20;99.90;;;;;;2068480;28;20472;-77
2023/11/14 04:24:23;;;;;;;17.27;3.17;;;11.20;99.90;;;;;;2068882;28;20037;-76
2023/11/14 04:25:23;;;;;;;13.00;2.97;;;11.20;99.90;;;;;;2070630;28;20688;-76
2023/11/14 04:26:24;;;;;;;14.85;2.92;;;11.20;99.90;;;;;;2068745;28;20029;-76
2023/11/14 04:27:25;;;;;;;12.80;2.60;;;11.20;99.90;;;;;;2069383;28;20057;-76
2023/11/14 04:28:25;;;;;;;13.40;2.78;;;11.20;99.90;;;;;;2071397;28;20029;-76
2023/11/14 04:29:26;;;;;;;14.27;2.90;;;11.20;99.90;;;;;;2069141;28;20038;-77
2023/11/14 04:30:27;;;;;;;14.43;3.20;;;11.20;99.90;;;;;;2068482;28;20064;-77
2023/11/14 04:31:27;;;;;;;14.52;2.78;;;11.20;99.90;;;;;;2062078;28;21126;-76
2023/11/14 04:32:28;;;;;;;10.32;2.90;;;11.20;99.90;;;;;;2060711;28;20276;-77
2023/11/14 04:33:28;;;;;;;14.35;3.13;;;11.20;99.90;;;;;;2067903;28;20431;-77
2023/11/14 04:34:29;;;;;;;12.45;2.60;;;11.20;99.90;;;;;;2078910;28;20037;-76
2023/11/14 04:35:29;;;;;;;14.23;3.08;;;11.20;99.90;;;;;;2069335;28;20559;-76
2023/11/14 04:36:30;;;;;;;13.68;2.72;;;11.20;99.90;;;;;;2067762;28;20057;-77
2023/11/14 04:37:31;;;;;;;11.50;2.78;;;11.20;99.90;;;;;;2079097;28;20025;-76
2023/11/14 04:38:32;;;;;;;15.27;3.30;;;11.20;99.90;;;;;;2070183;28;20031;-76
2023/11/14 04:39:33;;;;;;;14.00;2.67;;;11.20;99.90;;;;;;2067382;28;20029;-76
2023/11/14 04:40:33;;;;;;;13.85;2.80;;;11.10;99.90;;;;;;2061713;28;20097;-76
2023/11/14 04:41:34;;;;;;;12.13;2.50;;;11.10;99.90;;;;;;2069925;28;20385;-76
2023/11/14 04:42:35;;;;;;;10.60;2.42;;;11.10;99.90;;;;;;2067026;28;20042;-76
2023/11/14 04:43:35;;;;;;;12.80;2.78;;;11.10;99.90;;;;;;2070270;28;20030;-76
2023/11/14 04:44:36;;;;;;;13.35;2.50;;;11.10;99.90;;;;;;2065154;28;20025;-76
2023/11/14 04:45:37;;;;;;;12.80;3.00;;;11.10;99.90;;;;;;2066029;28;20092;-76
2023/11/14 04:46:41;;;;;;;14.10;2.92;;;11.00;99.90;;;;;;2070507;28;20500;-76
2023/11/14 04:47:42;;;;;;;10.95;2.53;;;11.00;99.90;;;;;;2066936;28;20036;-76
2023/11/14 04:48:42;;;;;;;13.00;2.53;;;11.00;99.90;;;;;;2067752;28;20488;-77
2023/11/14 04:49:44;;;;;;;13.18;2.67;;;11.00;99.90;;;;;;2070017;28;20456;-76
2023/11/14 04:50:45;;;;;;;16.48;2.72;;;11.00;99.90;;;;;;2070172;28;20036;-76
2023/11/14 04:51:46;;;;;;;13.02;2.92;;;11.00;99.90;;;;;;2067213;28;20485;-76
2023/11/14 04:52:46;;;;;;;11.68;2.70;;;10.90;99.90;;;;;;2070445;28;20042;-76
2023/11/14 04:53:47;;;;;;;14.88;2.80;;;11.00;99.90;;;;;;2070134;28;20029;-76
2023/11/14 04:54:49;;;;;;;12.60;2.92;;;11.00;99.90;;;;;;2071505;28;20034;-76
2023/11/14 04:55:50;;;;;;;14.43;2.50;;;10.90;99.90;;;;;;2067861;28;20022;-76
2023/11/14 04:56:51;;;;;;;15.77;3.13;;;10.90;99.90;;;;;;2067743;28;20518;-76
2023/11/14 04:57:51;;;;;;;12.65;2.88;;;10.90;99.90;;;;;;2071175;28;20029;-76
2023/11/14 04:58:52;;;;;;;13.43;2.70;;;10.80;99.90;;;;;;2059004;28;20529;-76
2023/11/14 04:59:52;;;;;;;13.50;2.72;;;10.80;99.90;;;;;;2067191;28;20049;-76
2023/11/14 05:00:53;;;;;;;12.88;2.80;;;10.80;99.90;;;;;;2071111;28;20041;-75
2023/11/14 05:01:54;;;;;;;12.95;2.63;;;10.70;99.90;;;;;;2069069;28;20026;-75
2023/11/14 05:02:54;;;;;;;13.27;2.88;;;10.70;99.90;;;;;;2069251;28;20409;-76
2023/11/14 05:03:55;;;;;;;19.38;3.10;;;10.70;99.90;;;;;;2068568;28;20104;-76
2023/11/14 05:04:59;;;;;;;17.25;3.00;;;10.70;99.90;;;;;;2071174;28;20080;-77
2023/11/14 05:05:59;;;;;;;16.73;2.88;;;10.60;99.90;;;;;;2069505;28;20052;-76
2023/11/14 05:07:02;;;;;;;13.75;2.88;;;10.60;99.90;;;;;;2068440;28;20152;-77
2023/11/14 05:08:02;;;;;;;18.48;6.38;;;10.60;99.90;;;;;;2068874;28;20026;-77
2023/11/14 05:09:03;;;;;;;18.38;4.45;;;10.60;99.90;;;;;;2070324;28;20029;-76
2023/11/14 05:10:05;;;;;;;13.77;2.90;;;10.60;99.90;;;;;;2059086;28;20026;-77
2023/11/14 05:11:06;;;;;;;13.25;3.00;;;10.60;99.90;;;;;;2061874;28;20045;-76
2023/11/14 05:12:07;;;;;;;18.08;3.00;;;10.60;99.90;;;;;;2070054;28;20051;-77
2023/11/14 05:13:07;;;;;;;14.80;2.92;;;10.60;99.90;;;;;;2067219;28;20030;-76
2023/11/14 05:14:08;;;;;;;16.23;3.00;;;10.60;99.90;;;;;;2071044;28;20088;-76
2023/11/14 05:15:09;;;;;;;11.77;3.28;;;10.60;99.90;;;;;;2058720;28;20030;-76
2023/11/14 05:16:10;;;;;;;16.58;3.00;;;10.60;99.90;;;;;;2051528;28;20572;-75